createdAt,value
2017-11-16T00:01:15.827Z,8.50
2017-11-16T00:03:43.317Z,8.40
2017-11-16T00:06:10.771Z,8.50
2017-11-16T00:08:38.255Z,8.40
2017-11-16T00:11:05.727Z,8.40
2017-11-16T00:13:33.198Z,8.40
2017-11-16T00:16:00.675Z,8.40
2017-11-16T00:18:28.132Z,8.40
2017-11-16T00:20:55.591Z,8.40
2017-11-16T00:23:23.069Z,8.40
2017-11-16T00:25:51.292Z,8.40
2017-11-16T00:28:23.132Z,8.40
2017-11-16T00:30:50.644Z,8.40
2017-11-16T00:33:18.894Z,8.40
2017-11-16T00:35:46.344Z,8.40
2017-11-16T00:38:13.812Z,8.40
2017-11-16T00:40:41.283Z,8.40
2017-11-16T00:43:09.535Z,8.40
2017-11-16T00:45:37.008Z,8.30
2017-11-16T00:48:04.463Z,8.40
2017-11-16T00:50:31.943Z,8.40
2017-11-16T00:52:59.404Z,8.30
2017-11-16T00:55:26.947Z,8.30
2017-11-16T00:57:55.196Z,8.30
2017-11-16T01:00:22.679Z,8.30
2017-11-16T01:02:50.145Z,8.30
2017-11-16T01:05:18.368Z,8.30
2017-11-16T01:07:45.861Z,8.30
2017-11-16T01:10:13.320Z,8.30
2017-11-16T01:12:40.772Z,8.30
2017-11-16T01:15:08.248Z,8.30
2017-11-16T01:17:35.699Z,8.30
2017-11-16T01:20:04.680Z,8.30
2017-11-16T01:22:33.652Z,8.30
2017-11-16T01:25:01.129Z,8.40
2017-11-16T01:27:28.589Z,8.40
2017-11-16T01:29:56.862Z,8.40
2017-11-16T01:32:24.323Z,8.40
2017-11-16T01:34:51.798Z,8.40
2017-11-16T01:37:20.044Z,8.40
2017-11-16T01:39:47.500Z,8.40
2017-11-16T01:42:14.979Z,8.40
2017-11-16T01:44:42.533Z,8.40
2017-11-16T01:47:10.753Z,8.40
2017-11-16T01:49:38.231Z,8.40
2017-11-16T01:52:05.687Z,8.40
2017-11-16T01:54:33.176Z,8.40
2017-11-16T01:57:00.631Z,8.40
2017-11-16T01:59:28.107Z,8.40
2017-11-16T02:01:56.343Z,8.30
2017-11-16T02:04:23.800Z,8.40
2017-11-16T02:06:51.279Z,8.30
2017-11-16T02:09:18.745Z,8.30
2017-11-16T02:11:46.979Z,8.30
2017-11-16T02:14:14.461Z,8.30
2017-11-16T02:16:41.927Z,8.30
2017-11-16T02:19:10.169Z,8.30
2017-11-16T02:21:37.628Z,8.20
2017-11-16T02:24:05.104Z,8.20
2017-11-16T02:26:32.565Z,8.20
2017-11-16T02:29:00.031Z,8.20
2017-11-16T02:31:28.253Z,8.20
2017-11-16T02:33:55.733Z,8.20
2017-11-16T02:36:23.191Z,8.20
2017-11-16T02:38:50.681Z,8.20
2017-11-16T02:41:18.893Z,8.20
2017-11-16T02:43:46.390Z,8.20
2017-11-16T02:46:13.848Z,8.20
2017-11-16T02:48:41.408Z,8.20
2017-11-16T02:51:08.894Z,8.20
2017-11-16T02:53:37.118Z,8.30
2017-11-16T02:56:04.608Z,8.30
2017-11-16T02:58:32.832Z,8.30
2017-11-16T03:01:00.325Z,8.30
2017-11-16T03:03:27.888Z,8.30
2017-11-16T03:05:55.366Z,8.30
2017-11-16T03:08:23.588Z,8.30
2017-11-16T03:10:51.180Z,8.30
2017-11-16T03:13:18.641Z,8.30
2017-11-16T03:15:46.099Z,8.30
2017-11-16T03:18:14.367Z,8.30
2017-11-16T03:20:41.828Z,8.30
2017-11-16T03:23:09.307Z,8.30
2017-11-16T03:25:36.768Z,8.30
2017-11-16T03:28:04.295Z,8.30
2017-11-16T03:30:31.756Z,8.30
2017-11-16T03:32:59.212Z,8.30
2017-11-16T03:35:26.767Z,8.30
2017-11-16T03:37:54.269Z,8.30
2017-11-16T03:40:21.740Z,8.20
2017-11-16T03:42:49.227Z,8.20
2017-11-16T03:45:16.688Z,8.20
2017-11-16T03:47:44.170Z,8.10
2017-11-16T03:50:12.412Z,8.10
2017-11-16T03:52:41.404Z,8.10
2017-11-16T03:55:08.863Z,8.10
2017-11-16T03:57:36.322Z,8.10
2017-11-16T04:00:05.310Z,8.10
2017-11-16T04:02:32.775Z,8.10
2017-11-16T04:05:00.246Z,8.10
2017-11-16T04:07:28.505Z,8.10
2017-11-16T04:09:55.976Z,8.10
2017-11-16T04:12:24.197Z,8.10
2017-11-16T04:14:51.671Z,8.10
2017-11-16T04:17:19.133Z,8.10
2017-11-16T04:19:46.607Z,8.10
2017-11-16T04:22:15.608Z,8.00
2017-11-16T04:24:44.583Z,8.00
2017-11-16T04:27:12.827Z,8.00
2017-11-16T04:29:40.305Z,8.00
2017-11-16T04:32:07.781Z,8.00
2017-11-16T04:34:36.009Z,7.90
2017-11-16T04:37:03.492Z,7.90
2017-11-16T04:39:30.954Z,7.90
2017-11-16T04:41:58.423Z,7.90
2017-11-16T04:44:27.393Z,7.90
2017-11-16T04:46:54.864Z,7.90
2017-11-16T04:49:22.324Z,7.90
2017-11-16T04:51:49.783Z,7.90
2017-11-16T04:54:18.052Z,7.90
2017-11-16T04:56:45.533Z,7.80
2017-11-16T04:59:13.767Z,7.90
2017-11-16T05:01:41.239Z,7.80
2017-11-16T05:04:10.239Z,7.80
2017-11-16T05:06:39.228Z,7.80
2017-11-16T05:09:07.461Z,7.80
2017-11-16T05:11:34.937Z,7.80
2017-11-16T05:14:02.392Z,7.80
2017-11-16T05:16:29.876Z,7.80
2017-11-16T05:18:57.340Z,7.80
2017-11-16T05:21:24.802Z,7.80
2017-11-16T05:23:53.046Z,7.80
2017-11-16T05:26:20.499Z,7.70
2017-11-16T05:28:47.975Z,7.80
2017-11-16T05:31:15.432Z,7.80
2017-11-16T05:33:43.704Z,7.70
2017-11-16T05:36:11.178Z,7.70
2017-11-16T05:38:38.635Z,7.70
2017-11-16T05:41:06.888Z,7.60
2017-11-16T05:43:34.366Z,7.70
2017-11-16T05:46:02.611Z,7.60
2017-11-16T05:48:30.079Z,7.50
2017-11-16T05:50:57.560Z,7.50
2017-11-16T05:53:25.779Z,7.50
2017-11-16T05:55:53.259Z,7.50
2017-11-16T05:58:20.839Z,7.50
2017-11-16T06:00:48.293Z,7.50
2017-11-16T06:03:15.767Z,7.40
2017-11-16T06:05:43.235Z,7.40
2017-11-16T06:08:10.708Z,7.40
2017-11-16T06:10:38.168Z,7.30
2017-11-16T06:13:05.644Z,7.30
2017-11-16T06:15:33.108Z,7.30
2017-11-16T06:18:01.825Z,7.30
2017-11-16T06:20:30.059Z,7.20
2017-11-16T06:22:57.543Z,7.20
2017-11-16T06:25:25.006Z,7.20
2017-11-16T06:27:53.257Z,7.20
2017-11-16T06:30:20.716Z,7.20
2017-11-16T06:32:48.183Z,7.20
2017-11-16T06:35:18.366Z,7.20
2017-11-16T06:37:51.487Z,7.20
2017-11-16T06:40:19.065Z,7.20
2017-11-16T06:42:47.284Z,7.20
2017-11-16T06:45:14.780Z,7.20
2017-11-16T06:47:43.029Z,7.20
2017-11-16T06:50:10.500Z,7.20
2017-11-16T06:52:37.980Z,7.20
2017-11-16T06:55:05.450Z,7.20
2017-11-16T06:57:33.755Z,7.10
2017-11-16T07:00:01.241Z,7.10
2017-11-16T07:02:28.701Z,7.20
2017-11-16T07:04:56.158Z,7.10
2017-11-16T07:07:23.654Z,7.10
2017-11-16T07:09:51.895Z,7.00
2017-11-16T07:12:19.373Z,7.00
2017-11-16T07:14:47.601Z,6.90
2017-11-16T07:17:15.072Z,6.90
2017-11-16T07:19:42.536Z,7.00
2017-11-16T07:22:10.018Z,6.90
2017-11-16T07:24:38.240Z,6.90
2017-11-16T07:27:05.712Z,6.90
2017-11-16T07:29:33.187Z,6.90
2017-11-16T07:32:00.652Z,6.90
2017-11-16T07:34:28.130Z,6.80
2017-11-16T07:36:56.367Z,6.90
2017-11-16T07:39:24.116Z,6.80
2017-11-16T07:41:52.236Z,6.80
2017-11-16T07:44:20.455Z,6.90
2017-11-16T07:46:47.933Z,6.90
2017-11-16T07:49:15.388Z,6.90
2017-11-16T07:51:42.884Z,6.90
2017-11-16T07:54:10.360Z,6.90
2017-11-16T07:56:37.827Z,6.90
2017-11-16T07:59:05.328Z,6.80
2017-11-16T08:01:32.779Z,6.80
2017-11-16T08:04:00.277Z,6.80
2017-11-16T08:06:28.504Z,6.80
2017-11-16T08:08:55.980Z,6.70
2017-11-16T08:11:24.229Z,6.70
2017-11-16T08:13:51.718Z,6.70
2017-11-16T08:16:19.943Z,6.70
2017-11-16T08:18:47.403Z,6.60
2017-11-16T08:21:14.912Z,6.60
2017-11-16T08:23:42.361Z,6.60
2017-11-16T08:26:10.616Z,6.60
2017-11-16T08:28:38.181Z,6.50
2017-11-16T08:31:05.644Z,6.60
2017-11-16T08:33:33.128Z,6.50
2017-11-16T08:36:00.620Z,6.50
2017-11-16T08:38:28.076Z,6.50
2017-11-16T08:40:55.564Z,6.50
2017-11-16T08:43:23.132Z,6.60
2017-11-16T08:45:50.607Z,6.60
2017-11-16T08:48:18.835Z,6.60
2017-11-16T08:50:46.340Z,6.50
2017-11-16T08:53:14.596Z,6.60
2017-11-16T08:55:42.056Z,6.60
2017-11-16T08:58:10.308Z,6.60
2017-11-16T09:00:37.782Z,6.60
2017-11-16T09:03:06.114Z,6.60
2017-11-16T09:05:33.597Z,6.60
2017-11-16T09:08:01.069Z,6.70
2017-11-16T09:10:28.555Z,6.70
2017-11-16T09:12:56.037Z,6.80
2017-11-16T09:15:23.488Z,6.80
2017-11-16T09:17:50.969Z,6.80
2017-11-16T09:20:18.447Z,6.80
2017-11-16T09:22:46.673Z,6.80
2017-11-16T09:25:14.155Z,6.80
2017-11-16T09:27:41.627Z,6.90
2017-11-16T09:30:09.109Z,6.90
2017-11-16T09:32:37.340Z,7.00
2017-11-16T09:35:04.813Z,7.00
2017-11-16T09:37:33.072Z,7.20
2017-11-16T09:40:00.535Z,7.20
2017-11-16T09:42:28.012Z,7.30
2017-11-16T09:44:55.488Z,7.40
2017-11-16T09:47:23.706Z,7.40
2017-11-16T09:49:51.176Z,7.40
2017-11-16T09:52:18.640Z,7.40
2017-11-16T09:54:46.132Z,7.40
2017-11-16T09:57:14.352Z,7.20
2017-11-16T09:59:41.841Z,7.10
2017-11-16T10:02:09.314Z,7.20
2017-11-16T10:04:37.576Z,7.30
2017-11-16T10:07:05.032Z,7.30
2017-11-16T10:09:33.264Z,7.30
2017-11-16T10:12:00.752Z,7.30
2017-11-16T10:14:28.221Z,7.50
2017-11-16T10:16:57.209Z,7.60
2017-11-16T10:19:24.664Z,7.60
2017-11-16T10:21:52.183Z,7.70
2017-11-16T10:24:19.640Z,7.90
2017-11-16T10:26:47.100Z,7.80
2017-11-16T10:29:14.593Z,8.00
2017-11-16T10:31:43.565Z,7.90
2017-11-16T10:34:11.148Z,7.90
2017-11-16T10:36:38.705Z,8.00
2017-11-16T10:39:06.174Z,8.00
2017-11-16T10:41:34.400Z,8.20
2017-11-16T10:44:01.880Z,8.10
2017-11-16T10:46:29.342Z,8.20
2017-11-16T10:48:56.816Z,8.10
2017-11-16T10:51:25.048Z,8.10
2017-11-16T10:53:52.529Z,8.10
2017-11-16T10:56:20.004Z,8.10
2017-11-16T10:58:48.241Z,8.00
2017-11-16T11:01:15.718Z,8.00
2017-11-16T11:03:43.184Z,8.00
2017-11-16T11:06:10.668Z,8.10
2017-11-16T11:08:38.896Z,8.20
2017-11-16T11:11:06.385Z,8.20
2017-11-16T11:13:34.630Z,8.30
2017-11-16T11:16:02.100Z,8.20
2017-11-16T11:18:31.085Z,8.30
2017-11-16T11:20:58.569Z,8.30
2017-11-16T11:23:26.806Z,8.40
2017-11-16T11:25:54.271Z,8.40
2017-11-16T11:28:21.752Z,8.50
2017-11-16T11:30:50.011Z,8.80
2017-11-16T11:33:17.481Z,8.70
2017-11-16T11:35:44.975Z,8.80
2017-11-16T11:38:12.436Z,8.70
2017-11-16T11:40:39.932Z,8.80
2017-11-16T11:43:07.404Z,8.80
2017-11-16T11:45:34.877Z,8.90
2017-11-16T11:48:03.101Z,8.80
2017-11-16T11:50:30.580Z,8.80
2017-11-16T11:52:59.563Z,8.80
2017-11-16T11:55:27.023Z,8.80
2017-11-16T11:57:54.512Z,8.80
2017-11-16T12:00:22.731Z,8.80
2017-11-16T12:02:50.214Z,8.80
2017-11-16T12:05:17.668Z,8.70
2017-11-16T12:07:45.898Z,8.70
2017-11-16T12:10:13.377Z,8.70
2017-11-16T12:12:40.833Z,8.70
2017-11-16T12:15:08.316Z,8.60
2017-11-16T12:17:36.552Z,8.70
2017-11-16T12:20:04.055Z,8.70
2017-11-16T12:22:33.024Z,8.80
2017-11-16T12:25:00.488Z,8.80
2017-11-16T12:27:27.960Z,8.80
2017-11-16T12:29:55.437Z,8.90
2017-11-16T12:32:23.687Z,8.90
2017-11-16T12:34:51.143Z,8.90
2017-11-16T12:37:19.389Z,8.90
2017-11-16T12:39:46.856Z,8.90
2017-11-16T12:42:14.359Z,8.90
2017-11-16T12:44:42.600Z,9.00
2017-11-16T12:47:10.055Z,9.00
2017-11-16T12:49:37.540Z,9.00
2017-11-16T12:52:05.776Z,8.90
2017-11-16T12:54:33.236Z,8.80
2017-11-16T12:57:00.722Z,8.90
2017-11-16T12:59:28.961Z,8.90
2017-11-16T13:01:56.428Z,8.90
2017-11-16T13:04:23.926Z,8.80
2017-11-16T13:06:52.179Z,8.80
2017-11-16T13:09:19.658Z,8.80
2017-11-16T13:11:47.912Z,8.80
2017-11-16T13:14:15.387Z,8.80
2017-11-16T13:16:43.622Z,8.80
2017-11-16T13:19:11.107Z,8.80
2017-11-16T13:21:39.608Z,8.90
2017-11-16T13:24:07.093Z,8.90
2017-11-16T13:26:34.567Z,9.00
2017-11-16T13:29:02.070Z,9.00
2017-11-16T13:31:30.297Z,8.90
2017-11-16T13:33:57.791Z,8.90
2017-11-16T13:36:26.021Z,9.00
2017-11-16T13:38:53.485Z,9.00
2017-11-16T13:41:21.068Z,9.00
2017-11-16T13:43:48.538Z,9.00
2017-11-16T13:46:16.756Z,9.00
2017-11-16T13:48:44.228Z,9.00
2017-11-16T13:51:11.712Z,9.00
2017-11-16T13:53:39.174Z,9.00
2017-11-16T13:56:07.253Z,9.00
2017-11-16T13:58:35.487Z,8.90
2017-11-16T14:01:02.957Z,8.90
2017-11-16T14:03:31.944Z,8.90
2017-11-16T14:05:59.411Z,8.90
2017-11-16T14:08:26.876Z,8.90
2017-11-16T14:10:54.339Z,8.80
2017-11-16T14:13:21.808Z,8.80
2017-11-16T14:15:50.036Z,8.80
2017-11-16T14:18:17.511Z,8.80
2017-11-16T14:20:46.479Z,8.80
2017-11-16T14:23:13.953Z,8.80
2017-11-16T14:25:42.928Z,8.70
2017-11-16T14:28:10.393Z,8.70
2017-11-16T14:30:37.872Z,8.70
2017-11-16T14:33:05.367Z,8.70
2017-11-16T14:35:32.829Z,8.70
2017-11-16T14:38:00.313Z,8.70
2017-11-16T14:40:27.776Z,8.60
2017-11-16T14:42:55.268Z,8.60
2017-11-16T14:45:23.488Z,8.50
2017-11-16T14:47:50.956Z,8.50
2017-11-16T14:50:18.430Z,8.50
2017-11-16T14:52:45.918Z,8.50
2017-11-16T14:55:14.156Z,8.50
2017-11-16T14:57:43.151Z,8.50
2017-11-16T15:00:10.631Z,8.50
2017-11-16T15:02:38.869Z,8.50
2017-11-16T15:05:06.336Z,8.50
2017-11-16T15:07:33.812Z,8.50
2017-11-16T15:10:01.298Z,8.50
2017-11-16T15:12:29.537Z,8.40
2017-11-16T15:14:57.005Z,8.40
2017-11-16T15:17:25.636Z,8.40
2017-11-16T15:19:53.906Z,8.40
2017-11-16T15:22:21.384Z,8.40
2017-11-16T15:24:48.865Z,8.50
2017-11-16T15:27:16.344Z,8.50
2017-11-16T15:29:44.606Z,8.50
2017-11-16T15:32:12.082Z,8.50
2017-11-16T15:34:40.308Z,8.50
2017-11-16T15:37:07.784Z,8.50
2017-11-16T15:39:35.269Z,8.50
2017-11-16T15:42:03.678Z,8.50
2017-11-16T15:44:31.161Z,8.50
2017-11-16T15:46:58.615Z,8.50
2017-11-16T15:49:26.094Z,8.50
2017-11-16T15:51:53.562Z,8.50
2017-11-16T15:54:21.787Z,8.50
2017-11-16T15:56:49.276Z,8.50
2017-11-16T15:59:16.744Z,8.50
2017-11-16T16:01:45.022Z,8.50
2017-11-16T16:04:14.432Z,8.50
2017-11-16T16:06:42.674Z,8.50
2017-11-16T16:09:10.151Z,8.40
2017-11-16T16:11:37.641Z,8.40
2017-11-16T16:14:05.121Z,8.50
2017-11-16T16:16:32.573Z,8.50
2017-11-16T16:19:00.057Z,8.50
2017-11-16T16:21:27.520Z,8.50
2017-11-16T16:23:55.764Z,8.50
2017-11-16T16:26:23.228Z,8.50
2017-11-16T16:28:50.692Z,8.60
2017-11-16T16:31:19.614Z,8.60
2017-11-16T16:33:47.162Z,8.60
2017-11-16T16:36:14.639Z,8.60
2017-11-16T16:38:42.865Z,8.70
2017-11-16T16:41:10.360Z,8.70
2017-11-16T16:43:37.832Z,8.70
2017-11-16T16:46:06.060Z,8.70
2017-11-16T16:48:33.532Z,8.70
2017-11-16T16:51:02.506Z,8.70
2017-11-16T16:53:29.979Z,8.80
2017-11-16T16:55:57.455Z,8.80
2017-11-16T16:58:24.933Z,8.80
2017-11-16T17:00:52.416Z,8.80
2017-11-16T17:03:19.899Z,8.80
2017-11-16T17:05:47.388Z,8.80
2017-11-16T17:08:15.620Z,8.90
2017-11-16T17:10:43.100Z,8.90
2017-11-16T17:13:10.579Z,8.90
2017-11-16T17:15:38.837Z,9.00
2017-11-16T17:18:06.305Z,9.00
2017-11-16T17:20:34.552Z,9.00
2017-11-16T17:23:02.028Z,9.00
2017-11-16T17:25:29.499Z,9.00
2017-11-16T17:27:57.778Z,9.00
2017-11-16T17:30:25.993Z,9.00
2017-11-16T17:32:53.477Z,9.00
2017-11-16T17:35:20.935Z,9.00
2017-11-16T17:37:48.406Z,8.90
2017-11-16T17:40:16.152Z,9.00
2017-11-16T17:42:45.127Z,8.90
2017-11-16T17:45:12.675Z,8.90
2017-11-16T17:47:40.170Z,9.00
2017-11-16T17:50:08.406Z,8.90
2017-11-16T17:52:35.884Z,8.90
2017-11-16T17:55:03.392Z,8.90
2017-11-16T17:57:30.847Z,9.00
2017-11-16T17:59:58.425Z,9.00
2017-11-16T18:02:25.895Z,9.00
2017-11-16T18:04:55.269Z,9.10
2017-11-16T18:07:24.664Z,9.10
2017-11-16T18:09:54.407Z,9.10
2017-11-16T18:12:24.506Z,9.20
2017-11-16T18:14:53.972Z,9.20
2017-11-16T18:17:22.900Z,9.20
2017-11-16T18:19:52.158Z,9.30
2017-11-16T18:22:21.732Z,9.20
2017-11-16T18:24:50.783Z,9.30
2017-11-16T18:27:19.761Z,9.30
2017-11-16T18:29:49.097Z,9.30
2017-11-16T18:32:18.383Z,9.30
2017-11-16T18:34:47.361Z,9.30
2017-11-16T18:37:16.229Z,9.30
2017-11-16T18:39:45.248Z,9.30
2017-11-16T18:42:14.015Z,9.30
2017-11-16T18:44:41.573Z,9.30
2017-11-16T18:47:09.023Z,9.30
2017-11-16T18:49:36.520Z,9.40
2017-11-16T18:52:04.165Z,9.40
2017-11-16T18:54:32.401Z,9.30
2017-11-16T18:56:59.871Z,9.30
2017-11-16T18:59:27.371Z,9.40
2017-11-16T19:01:54.849Z,9.40
2017-11-16T19:04:22.310Z,9.40
2017-11-16T19:06:49.784Z,9.40
2017-11-16T19:09:17.340Z,9.40
2017-11-16T19:11:44.821Z,9.40
2017-11-16T19:14:13.068Z,9.40
2017-11-16T19:16:40.609Z,9.40
2017-11-16T19:19:08.076Z,9.40
2017-11-16T19:21:35.570Z,9.40
2017-11-16T19:24:03.808Z,9.50
2017-11-16T19:26:31.280Z,9.50
2017-11-16T19:28:58.755Z,9.50
2017-11-16T19:31:27.008Z,9.50
2017-11-16T19:33:54.474Z,9.50
2017-11-16T19:36:21.949Z,9.50
2017-11-16T19:38:50.196Z,9.50
2017-11-16T19:41:17.678Z,9.50
2017-11-16T19:43:45.916Z,9.50
2017-11-16T19:46:13.382Z,9.50
2017-11-16T19:48:40.897Z,9.40
2017-11-16T19:51:08.404Z,9.40
2017-11-16T19:53:35.873Z,9.40
2017-11-16T19:56:03.336Z,9.40
2017-11-16T19:58:31.697Z,9.40
2017-11-16T20:00:59.170Z,9.40
2017-11-16T20:03:27.446Z,9.40
2017-11-16T20:05:54.949Z,9.40
2017-11-16T20:08:22.495Z,9.40
2017-11-16T20:10:49.968Z,9.40
2017-11-16T20:13:17.440Z,9.40
2017-11-16T20:15:46.540Z,9.40
2017-11-16T20:18:14.024Z,9.40
2017-11-16T20:20:42.313Z,9.40
2017-11-16T20:23:10.565Z,9.40
2017-11-16T20:25:38.047Z,9.40
2017-11-16T20:28:06.307Z,9.40
2017-11-16T20:30:34.522Z,9.40
2017-11-16T20:33:01.992Z,9.40
2017-11-16T20:35:29.524Z,9.40
2017-11-16T20:37:56.983Z,9.50
2017-11-16T20:40:43.117Z,9.40
2017-11-16T20:46:26.330Z,9.40
2017-11-16T20:48:55.433Z,9.40
2017-11-16T20:54:30.487Z,9.40
2017-11-16T20:56:58.002Z,9.40
2017-11-16T20:59:26.257Z,9.50
2017-11-16T21:01:53.868Z,9.50
2017-11-16T21:04:21.411Z,9.40
2017-11-16T21:06:48.904Z,9.40
2017-11-16T21:09:16.357Z,9.40
2017-11-16T21:11:43.840Z,9.40
2017-11-16T21:14:11.299Z,9.40
2017-11-16T21:16:38.772Z,9.40
2017-11-16T21:19:07.000Z,9.40
2017-11-16T21:21:34.540Z,9.40
2017-11-16T21:24:02.017Z,9.40
2017-11-16T21:26:29.491Z,9.40
2017-11-16T21:28:56.987Z,9.40
2017-11-16T21:31:25.228Z,9.40
2017-11-16T21:33:52.708Z,9.40
2017-11-16T21:36:20.963Z,9.40
2017-11-16T21:38:48.438Z,9.40
2017-11-16T21:41:16.676Z,9.40
2017-11-16T21:43:44.134Z,9.40
2017-11-16T21:46:11.615Z,9.40
2017-11-16T21:48:39.071Z,9.40
2017-11-16T21:51:06.531Z,9.40
2017-11-16T21:53:34.815Z,9.40
2017-11-16T21:56:03.051Z,9.40
2017-11-16T21:58:30.539Z,9.40
2017-11-16T22:00:58.243Z,9.40
2017-11-16T22:03:25.715Z,9.50
2017-11-16T22:05:53.186Z,9.50
2017-11-16T22:08:20.661Z,9.50
2017-11-16T22:10:48.129Z,9.40
2017-11-16T22:13:15.599Z,9.40
2017-11-16T22:15:43.837Z,9.40
2017-11-16T22:18:11.296Z,9.40
2017-11-16T22:20:38.756Z,9.40
2017-11-16T22:23:06.238Z,9.40
2017-11-16T22:25:34.500Z,9.40
2017-11-16T22:28:01.959Z,9.40
2017-11-16T22:30:30.535Z,9.40
2017-11-16T22:32:57.993Z,9.40
2017-11-16T22:35:25.475Z,9.40
2017-11-16T22:37:52.940Z,9.40
2017-11-16T22:40:20.400Z,9.40
2017-11-16T22:42:47.892Z,9.50
2017-11-16T22:45:15.345Z,9.40
2017-11-16T22:47:42.805Z,9.40
2017-11-16T22:50:10.285Z,9.40
2017-11-16T22:52:37.782Z,9.50
2017-11-16T22:55:05.259Z,9.50
2017-11-16T22:57:32.757Z,9.50
2017-11-16T23:00:00.223Z,9.40
2017-11-16T23:02:27.775Z,9.40
2017-11-16T23:04:56.760Z,9.40
2017-11-16T23:07:24.266Z,9.40
2017-11-16T23:09:51.722Z,9.40
2017-11-16T23:12:19.198Z,9.40
2017-11-16T23:14:46.671Z,9.40
2017-11-16T23:17:14.143Z,9.40
2017-11-16T23:19:41.627Z,9.40
2017-11-16T23:22:09.864Z,9.30
2017-11-16T23:24:37.346Z,9.30
2017-11-16T23:27:05.593Z,9.30
2017-11-16T23:29:33.051Z,9.30
2017-11-16T23:32:00.574Z,9.30
2017-11-16T23:34:28.028Z,9.30
2017-11-16T23:36:55.504Z,9.30
2017-11-16T23:39:22.980Z,9.30
2017-11-16T23:41:50.456Z,9.30
2017-11-16T23:44:17.940Z,9.40
2017-11-16T23:46:46.179Z,9.40
2017-11-16T23:49:13.637Z,9.40
2017-11-16T23:51:41.123Z,9.40
2017-11-16T23:54:08.656Z,9.40
2017-11-16T23:56:36.145Z,9.40
2017-11-16T23:59:03.639Z,9.30
